createdAt,value
2022-12-13T00:00:19.516Z,19.02
2022-12-13T00:02:26.652Z,18.77
2022-12-13T00:04:13.995Z,18.65
2022-12-13T00:06:04.301Z,19.95
2022-12-13T00:07:51.420Z,18.25
2022-12-13T00:09:38.926Z,18.45
2022-12-13T00:11:26.900Z,18.88
2022-12-13T00:13:13.913Z,17.25
2022-12-13T00:15:01.051Z,18.37
2022-12-13T00:16:49.828Z,18.27
2022-12-13T00:18:37.421Z,18.42
2022-12-13T00:20:24.524Z,18.45
2022-12-13T00:22:11.856Z,18.33
2022-12-13T00:24:01.088Z,17.65
2022-12-13T00:25:48.612Z,17.45
2022-12-13T00:27:36.026Z,18.00
2022-12-13T00:29:23.021Z,17.33
2022-12-13T00:31:51.513Z,15.50
2022-12-13T00:33:17.696Z,16.42
2022-12-13T00:35:04.989Z,17.50
2022-12-13T00:36:54.229Z,16.88
2022-12-13T00:38:41.683Z,17.75
2022-12-13T00:40:28.974Z,17.15
2022-12-13T00:42:16.086Z,18.02
2022-12-13T00:44:04.400Z,18.17
2022-12-13T00:45:51.471Z,18.80
2022-12-13T00:47:38.728Z,19.17
2022-12-13T00:49:25.969Z,17.48
2022-12-13T00:51:13.118Z,18.55
2022-12-13T00:53:01.140Z,17.30
2022-12-13T00:54:48.596Z,18.55
2022-12-13T00:56:37.704Z,17.73
2022-12-13T00:58:24.798Z,17.00
2022-12-13T01:00:12.355Z,18.65
2022-12-13T01:01:59.459Z,16.38
2022-12-13T01:03:47.245Z,18.03
2022-12-13T01:06:13.220Z,17.80
2022-12-13T01:07:45.368Z,18.70
2022-12-13T01:09:33.757Z,17.13
2022-12-13T01:11:21.124Z,17.40
2022-12-13T01:13:08.403Z,18.05
2022-12-13T01:14:56.275Z,16.30
2022-12-13T01:16:45.143Z,17.50
2022-12-13T01:20:19.332Z,19.35
2022-12-13T01:22:07.919Z,18.23
2022-12-13T01:23:57.195Z,14.27
2022-12-13T01:25:44.140Z,18.02
2022-12-13T01:27:31.383Z,18.05
2022-12-13T01:29:19.693Z,17.10
2022-12-13T01:31:11.245Z,17.83
2022-12-13T01:32:59.027Z,17.42
2022-12-13T01:34:46.427Z,18.45
2022-12-13T01:36:33.929Z,18.13
2022-12-13T01:38:26.413Z,17.38
2022-12-13T01:40:16.225Z,16.85
2022-12-13T01:42:04.455Z,17.85
2022-12-13T01:43:54.535Z,17.98
2022-12-13T01:45:43.004Z,15.07
2022-12-13T01:47:45.580Z,17.50
2022-12-13T01:49:32.926Z,17.27
2022-12-13T01:51:24.264Z,16.53
2022-12-13T01:53:23.145Z,16.65
2022-12-13T01:55:12.570Z,15.98
2022-12-13T01:57:00.453Z,15.65
2022-12-13T01:58:50.022Z,16.23
2022-12-13T02:00:38.088Z,16.15
2022-12-13T02:02:27.997Z,15.95
2022-12-13T02:04:21.155Z,16.25
2022-12-13T02:06:21.058Z,14.75
2022-12-13T02:08:10.151Z,17.85
2022-12-13T02:09:59.282Z,16.40
2022-12-13T02:11:47.184Z,16.23
2022-12-13T02:13:34.104Z,16.58
2022-12-13T02:15:22.265Z,16.48
2022-12-13T02:17:45.375Z,17.75
2022-12-13T02:20:12.351Z,13.73
2022-12-13T02:22:50.054Z,14.27
2022-12-13T02:25:15.108Z,14.40
2022-12-13T02:27:42.951Z,14.82
2022-12-13T02:29:53.819Z,12.80
2022-12-13T02:32:00.773Z,14.52
2022-12-13T02:33:48.019Z,15.35
2022-12-13T02:36:03.439Z,14.73
2022-12-13T02:38:06.858Z,13.48
2022-12-13T02:40:31.391Z,14.23
2022-12-13T02:42:27.777Z,14.02
2022-12-13T02:44:22.546Z,12.65
2022-12-13T02:46:12.346Z,13.88
2022-12-13T02:48:03.618Z,13.30
2022-12-13T02:49:55.688Z,13.15
2022-12-13T02:51:44.926Z,13.68
2022-12-13T02:53:33.798Z,13.88
2022-12-13T02:55:26.582Z,12.93
2022-12-13T02:57:32.186Z,13.05
2022-12-13T02:59:19.634Z,12.95
2022-12-13T03:01:29.795Z,13.43
2022-12-13T03:03:31.139Z,12.85
2022-12-13T03:05:53.732Z,14.00
2022-12-13T03:08:11.189Z,12.55
2022-12-13T03:10:10.049Z,12.90
2022-12-13T03:12:40.096Z,13.95
2022-12-13T03:14:31.570Z,11.90
2022-12-13T03:16:44.307Z,11.80
2022-12-13T03:18:33.665Z,12.45
2022-12-13T03:20:25.644Z,12.25
2022-12-13T03:22:12.992Z,12.65
2022-12-13T03:24:00.105Z,10.03
2022-12-13T03:25:50.897Z,13.48
2022-12-13T03:27:38.701Z,12.18
2022-12-13T03:29:25.750Z,9.80
2022-12-13T03:31:13.304Z,12.32
2022-12-13T03:33:01.003Z,12.68
2022-12-13T03:34:52.157Z,12.63
2022-12-13T03:36:47.797Z,13.15
2022-12-13T03:38:35.275Z,11.85
2022-12-13T03:40:22.834Z,12.93
2022-12-13T03:42:11.982Z,12.40
2022-12-13T03:44:00.944Z,11.75
2022-12-13T03:45:47.911Z,12.75
2022-12-13T03:47:35.023Z,13.17
2022-12-13T03:49:22.385Z,12.88
2022-12-13T03:51:09.999Z,12.50
2022-12-13T03:53:01.393Z,12.40
2022-12-13T03:54:48.768Z,13.48
2022-12-13T03:56:35.854Z,9.85
2022-12-13T03:58:24.107Z,11.93
2022-12-13T04:00:11.975Z,10.82
2022-12-13T04:02:02.626Z,12.18
2022-12-13T04:03:51.614Z,11.50
2022-12-13T04:05:39.028Z,11.88
2022-12-13T04:07:25.984Z,10.75
2022-12-13T04:09:21.255Z,9.60
2022-12-13T04:11:27.627Z,10.05
2022-12-13T04:13:32.900Z,11.23
2022-12-13T04:15:19.891Z,9.75
2022-12-13T04:18:54.767Z,10.00
2022-12-13T04:20:41.837Z,9.83
2022-12-13T04:22:29.048Z,9.88
2022-12-13T04:24:16.525Z,9.75
2022-12-13T04:26:03.563Z,10.43
2022-12-13T04:27:50.851Z,10.10
2022-12-13T04:29:37.864Z,9.32
2022-12-13T04:31:24.867Z,9.60
2022-12-13T04:33:12.127Z,9.65
2022-12-13T04:36:48.705Z,7.45
2022-12-13T04:38:36.571Z,9.52
2022-12-13T04:40:23.678Z,9.02
2022-12-13T04:42:15.949Z,8.30
2022-12-13T04:44:04.479Z,7.60
2022-12-13T04:45:55.747Z,7.50
2022-12-13T04:47:42.799Z,7.20
2022-12-13T04:49:30.779Z,7.72
2022-12-13T04:51:17.901Z,8.70
2022-12-13T04:53:04.947Z,8.18
2022-12-13T04:54:55.982Z,7.22
2022-12-13T04:56:43.286Z,9.00
2022-12-13T04:58:30.485Z,6.07
2022-12-13T05:00:18.073Z,9.00
2022-12-13T05:02:06.673Z,9.85
2022-12-13T05:03:54.057Z,9.68
2022-12-13T05:05:41.553Z,10.45
2022-12-13T05:07:28.721Z,10.73
2022-12-13T05:09:15.672Z,10.98
2022-12-13T05:11:03.818Z,7.85
2022-12-13T05:12:50.792Z,8.80
2022-12-13T05:14:37.889Z,9.90
2022-12-13T05:16:25.300Z,9.27
2022-12-13T05:18:12.432Z,8.45
2022-12-13T05:19:59.547Z,8.40
2022-12-13T05:21:47.889Z,7.47
2022-12-13T05:23:35.068Z,9.35
2022-12-13T05:25:22.106Z,9.32
2022-12-13T05:27:25.164Z,10.02
2022-12-13T05:29:13.798Z,10.77
2022-12-13T05:31:23.552Z,10.48
2022-12-13T05:33:11.438Z,9.85
2022-12-13T05:34:58.425Z,10.37
2022-12-13T05:36:45.502Z,10.27
2022-12-13T05:38:32.901Z,10.32
2022-12-13T05:40:20.420Z,11.07
2022-12-13T05:42:07.551Z,10.75
2022-12-13T05:43:55.117Z,11.15
2022-12-13T05:45:42.984Z,10.88
2022-12-13T05:47:30.244Z,10.48
2022-12-13T05:49:17.639Z,10.82
2022-12-13T05:51:10.775Z,12.40
2022-12-13T05:52:58.356Z,12.25
2022-12-13T05:54:45.761Z,13.02
2022-12-13T05:56:32.842Z,11.85
2022-12-13T05:58:23.323Z,11.57
2022-12-13T06:00:28.674Z,10.13
2022-12-13T06:02:21.812Z,11.80
2022-12-13T06:04:09.702Z,12.25
2022-12-13T06:06:01.286Z,42.55
2022-12-13T06:07:53.544Z,37.88
2022-12-13T06:09:45.149Z,14.65
2022-12-13T06:11:32.730Z,13.10
2022-12-13T06:13:21.448Z,13.68
2022-12-13T06:15:22.684Z,17.00
2022-12-13T06:17:10.720Z,13.18
2022-12-13T06:19:03.823Z,12.88
2022-12-13T06:21:00.414Z,12.57
2022-12-13T06:22:47.691Z,10.88
2022-12-13T06:24:34.754Z,12.83
2022-12-13T06:26:22.058Z,13.57
2022-12-13T06:28:09.656Z,13.50
2022-12-13T06:29:59.796Z,14.20
2022-12-13T06:32:02.017Z,13.60
2022-12-13T06:33:51.035Z,11.73
2022-12-13T06:35:41.467Z,12.15
2022-12-13T06:37:28.695Z,11.65
2022-12-13T06:39:16.110Z,10.77
2022-12-13T06:41:14.390Z,11.43
2022-12-13T06:43:01.569Z,10.80
2022-12-13T06:44:55.730Z,11.25
2022-12-13T06:46:43.149Z,11.85
2022-12-13T06:48:30.248Z,10.73
2022-12-13T06:50:17.718Z,12.75
2022-12-13T06:52:05.349Z,12.07
2022-12-13T06:53:52.603Z,12.57
2022-12-13T06:55:39.926Z,13.25
2022-12-13T06:57:27.122Z,12.77
2022-12-13T06:59:14.220Z,9.80
2022-12-13T07:01:24.269Z,13.20
2022-12-13T07:03:12.954Z,12.73
2022-12-13T07:05:00.083Z,10.07
2022-12-13T07:06:47.709Z,11.63
2022-12-13T07:08:36.208Z,13.50
2022-12-13T07:10:23.333Z,11.80
2022-12-13T07:12:11.467Z,11.93
2022-12-13T07:13:59.030Z,10.45
2022-12-13T07:15:46.711Z,11.07
2022-12-13T07:19:23.516Z,9.35
2022-12-13T07:21:21.698Z,11.27
2022-12-13T07:23:10.850Z,11.63
2022-12-13T07:24:58.029Z,10.57
2022-12-13T07:26:45.208Z,11.63
2022-12-13T07:28:33.905Z,12.90
2022-12-13T07:30:21.072Z,11.25
2022-12-13T07:32:08.783Z,11.93
2022-12-13T07:33:56.154Z,12.18
2022-12-13T07:35:43.453Z,11.25
2022-12-13T07:37:31.200Z,10.23
2022-12-13T07:41:06.809Z,12.38
2022-12-13T07:42:55.418Z,12.15
2022-12-13T07:44:44.965Z,11.30
2022-12-13T07:46:33.944Z,12.82
2022-12-13T07:48:21.924Z,12.15
2022-12-13T07:52:12.743Z,14.30
2022-12-13T07:54:00.065Z,7.82
2022-12-13T07:55:47.862Z,11.82
2022-12-13T07:57:35.570Z,11.73
2022-12-13T07:59:28.424Z,10.93
2022-12-13T08:01:17.213Z,11.38
2022-12-13T08:04:55.056Z,11.30
2022-12-13T08:06:42.746Z,13.10
2022-12-13T08:08:30.942Z,13.00
2022-12-13T08:10:18.847Z,12.85
2022-12-13T08:12:06.484Z,12.55
2022-12-13T08:13:56.689Z,12.48
2022-12-13T08:15:43.973Z,11.27
2022-12-13T08:17:31.546Z,11.35
2022-12-13T08:19:18.686Z,13.73
2022-12-13T08:21:37.290Z,13.15
2022-12-13T08:23:15.540Z,11.18
2022-12-13T08:25:03.362Z,12.05
2022-12-13T08:26:50.474Z,12.27
2022-12-13T08:28:38.095Z,13.52
2022-12-13T08:30:25.157Z,13.35
2022-12-13T08:32:13.271Z,9.25
2022-12-13T08:34:01.642Z,12.43
2022-12-13T08:35:49.081Z,13.50
2022-12-13T08:37:36.165Z,12.57
2022-12-13T08:39:23.573Z,13.77
2022-12-13T08:41:11.673Z,13.90
2022-12-13T08:42:58.829Z,11.30
2022-12-13T08:44:51.232Z,13.75
2022-12-13T08:46:39.925Z,16.17
2022-12-13T08:48:27.619Z,13.55
2022-12-13T08:50:15.719Z,12.25
2022-12-13T08:52:02.843Z,11.35
2022-12-13T08:53:51.168Z,12.75
2022-12-13T08:55:38.560Z,11.57
2022-12-13T08:57:25.941Z,12.05
2022-12-13T08:59:13.169Z,10.70
2022-12-13T09:01:10.121Z,11.45
2022-12-13T09:02:58.047Z,9.55
2022-12-13T09:04:45.296Z,11.45
2022-12-13T09:06:33.087Z,11.55
2022-12-13T09:08:24.206Z,11.02
2022-12-13T09:10:26.406Z,11.32
2022-12-13T09:12:29.974Z,12.98
2022-12-13T09:14:18.102Z,12.68
2022-12-13T09:16:23.328Z,12.55
2022-12-13T09:18:15.102Z,12.00
2022-12-13T09:20:02.871Z,12.05
2022-12-13T09:22:02.433Z,10.95
2022-12-13T09:23:50.382Z,11.35
2022-12-13T09:25:37.850Z,8.97
2022-12-13T09:27:28.085Z,10.75
2022-12-13T09:29:18.791Z,12.52
2022-12-13T09:31:09.516Z,14.80
2022-12-13T09:32:56.698Z,11.60
2022-12-13T09:34:45.811Z,11.60
2022-12-13T09:36:33.200Z,11.35
2022-12-13T09:38:20.608Z,12.05
2022-12-13T09:40:16.218Z,10.70
2022-12-13T09:42:30.841Z,11.20
2022-12-13T09:44:45.234Z,12.05
2022-12-13T09:46:44.936Z,11.63
2022-12-13T09:48:34.880Z,12.68
2022-12-13T09:50:37.758Z,11.50
2022-12-13T09:52:33.479Z,12.63
2022-12-13T09:54:24.224Z,13.68
2022-12-13T09:56:13.223Z,11.70
2022-12-13T09:58:08.845Z,13.23
2022-12-13T10:00:01.076Z,12.55
2022-12-13T10:02:02.470Z,11.77
2022-12-13T10:03:52.926Z,13.00
2022-12-13T10:05:40.643Z,12.93
2022-12-13T10:07:28.740Z,13.68
2022-12-13T10:09:16.255Z,15.60
2022-12-13T10:11:04.107Z,16.25
2022-12-13T10:13:16.823Z,15.18
2022-12-13T10:15:04.791Z,17.25
2022-12-13T10:16:58.475Z,13.90
2022-12-13T10:18:46.209Z,15.10
2022-12-13T10:20:39.163Z,15.30
2022-12-13T10:22:26.413Z,12.27
2022-12-13T10:24:36.464Z,14.63
2022-12-13T10:26:25.160Z,14.40
2022-12-13T10:28:12.672Z,15.15
2022-12-13T10:30:07.184Z,15.07
2022-12-13T10:31:54.519Z,13.30
2022-12-13T10:33:50.645Z,12.40
2022-12-13T10:35:41.292Z,14.27
2022-12-13T10:37:31.917Z,9.65
2022-12-13T10:39:40.831Z,12.13
2022-12-13T10:41:37.358Z,14.07
2022-12-13T10:43:27.609Z,14.07
2022-12-13T10:45:23.028Z,13.82
2022-12-13T10:47:24.530Z,13.10
2022-12-13T10:49:22.722Z,15.30
2022-12-13T10:51:13.771Z,13.98
2022-12-13T10:53:01.738Z,13.90
2022-12-13T10:54:50.890Z,15.73
2022-12-13T10:56:50.570Z,13.00
2022-12-13T10:58:44.153Z,13.50
2022-12-13T11:00:45.269Z,16.83
2022-12-13T11:02:39.333Z,15.02
2022-12-13T11:04:31.542Z,15.48
2022-12-13T11:06:18.986Z,11.73
2022-12-13T11:08:14.918Z,14.48
2022-12-13T11:10:27.574Z,15.30
2022-12-13T11:12:19.728Z,15.82
2022-12-13T11:14:14.772Z,16.00
2022-12-13T11:16:21.909Z,14.98
2022-12-13T11:18:22.308Z,15.27
2022-12-13T11:20:26.014Z,15.70
2022-12-13T11:22:23.325Z,15.65
2022-12-13T11:24:23.091Z,18.23
2022-12-13T11:26:24.190Z,17.67
2022-12-13T11:28:33.706Z,18.58
2022-12-13T11:30:46.747Z,16.23
2022-12-13T11:32:59.181Z,16.77
2022-12-13T11:35:18.647Z,16.92
2022-12-13T11:37:15.966Z,16.10
2022-12-13T11:39:37.225Z,14.45
2022-12-13T11:41:42.477Z,15.95
2022-12-13T11:43:46.028Z,17.08
2022-12-13T11:45:58.472Z,17.40
2022-12-13T11:48:03.616Z,16.00
2022-12-13T11:49:58.608Z,15.90
2022-12-13T11:52:01.654Z,17.13
2022-12-13T11:54:03.617Z,15.05
2022-12-13T11:55:56.753Z,16.77
2022-12-13T11:58:01.715Z,18.23
2022-12-13T12:00:02.380Z,18.65
2022-12-13T12:02:05.289Z,19.48
2022-12-13T12:04:00.237Z,15.57
2022-12-13T12:05:56.148Z,15.73
2022-12-13T12:08:31.267Z,17.35
2022-12-13T12:10:29.384Z,14.80
2022-12-13T12:12:33.361Z,18.23
2022-12-13T12:14:28.643Z,17.15
2022-12-13T12:16:41.382Z,14.30
2022-12-13T12:18:29.123Z,21.42
2022-12-13T12:20:23.935Z,17.55
2022-12-13T12:23:04.746Z,15.38
2022-12-13T12:25:04.138Z,14.90
2022-12-13T12:27:00.323Z,16.00
2022-12-13T12:29:01.324Z,16.38
2022-12-13T12:31:05.224Z,16.98
2022-12-13T12:33:07.121Z,16.10
2022-12-13T12:35:21.129Z,13.77
2022-12-13T12:37:27.073Z,13.65
2022-12-13T12:39:26.509Z,12.13
2022-12-13T12:41:45.660Z,12.30
2022-12-13T12:43:40.618Z,13.65
2022-12-13T12:45:55.919Z,14.90
2022-12-13T12:48:42.749Z,13.88
2022-12-13T12:50:22.544Z,12.77
2022-12-13T12:52:33.247Z,12.27
2022-12-13T12:54:51.025Z,11.15
2022-12-13T12:56:48.070Z,11.30
2022-12-13T12:58:56.869Z,11.53
2022-12-13T13:00:54.233Z,11.90
2022-12-13T13:04:56.316Z,10.70
2022-12-13T13:06:51.153Z,9.85
2022-12-13T13:09:01.891Z,9.90
2022-12-13T13:10:51.043Z,10.32
2022-12-13T13:12:43.028Z,10.77
2022-12-13T13:14:36.930Z,10.93
2022-12-13T13:16:27.038Z,13.50
2022-12-13T13:18:49.770Z,13.15
2022-12-13T13:20:37.264Z,14.35
2022-12-13T13:22:43.298Z,15.13
2022-12-13T13:24:33.256Z,16.85
2022-12-13T13:26:36.648Z,17.70
2022-12-13T13:28:24.121Z,10.57
2022-12-13T13:30:25.547Z,10.93
2022-12-13T13:32:12.871Z,11.60
2022-12-13T13:34:36.278Z,12.57
2022-12-13T13:36:39.008Z,14.02
2022-12-13T13:38:47.472Z,13.68
2022-12-13T13:40:36.908Z,14.18
2022-12-13T13:42:29.731Z,14.57
2022-12-13T13:44:55.263Z,17.20
2022-12-13T13:47:12.344Z,17.63
2022-12-13T13:49:07.638Z,18.05
2022-12-13T13:51:32.563Z,18.35
2022-12-13T13:53:23.114Z,16.08
2022-12-13T13:55:14.041Z,16.40
2022-12-13T13:57:45.538Z,16.67
2022-12-13T13:59:50.614Z,13.35
2022-12-13T14:01:48.907Z,15.85
2022-12-13T14:04:15.502Z,15.52
2022-12-13T14:06:45.711Z,18.17
2022-12-13T14:08:41.144Z,16.63
2022-12-13T14:10:50.614Z,18.25
2022-12-13T14:13:14.069Z,17.17
2022-12-13T14:15:38.431Z,19.02
2022-12-13T14:17:58.402Z,17.05
2022-12-13T14:20:21.832Z,18.30
2022-12-13T14:22:15.820Z,21.30
2022-12-13T14:24:34.424Z,17.33
2022-12-13T14:26:45.128Z,21.00
2022-12-13T14:28:55.188Z,21.25
2022-12-13T14:30:47.901Z,20.17
2022-12-13T14:32:47.325Z,16.73
2022-12-13T14:34:35.653Z,17.95
2022-12-13T14:36:35.726Z,19.45
2022-12-13T14:38:30.891Z,17.55
2022-12-13T14:40:33.645Z,18.98
2022-12-13T14:42:38.706Z,24.33
2022-12-13T14:44:31.667Z,24.90
2022-12-13T14:46:19.332Z,24.33
2022-12-13T14:48:14.256Z,25.08
2022-12-13T14:50:01.665Z,21.58
2022-12-13T14:51:57.353Z,22.10
2022-12-13T14:53:44.694Z,21.00
2022-12-13T14:55:36.377Z,22.10
2022-12-13T14:57:25.527Z,23.17
2022-12-13T14:59:13.448Z,25.75
2022-12-13T15:01:00.877Z,24.77
2022-12-13T15:02:54.347Z,27.30
2022-12-13T15:04:41.653Z,29.48
2022-12-13T15:06:28.940Z,25.42
2022-12-13T15:08:21.468Z,25.83
2022-12-13T15:10:32.708Z,24.10
2022-12-13T15:12:25.486Z,25.88
2022-12-13T15:14:19.996Z,23.38
2022-12-13T15:16:11.184Z,23.98
2022-12-13T15:18:21.323Z,24.23
2022-12-13T15:20:26.482Z,27.48
2022-12-13T15:22:29.559Z,23.90
2022-12-13T15:24:29.358Z,23.67
2022-12-13T15:26:30.032Z,29.05
2022-12-13T15:28:21.621Z,26.00
2022-12-13T15:30:14.562Z,25.58
2022-12-13T15:32:03.661Z,30.02
2022-12-13T15:33:51.350Z,30.38
2022-12-13T15:35:39.170Z,31.00
2022-12-13T15:37:33.044Z,33.22
2022-12-13T15:39:20.351Z,35.25
2022-12-13T15:41:18.824Z,31.42
2022-12-13T15:43:06.506Z,33.53
2022-12-13T15:44:56.366Z,36.83
2022-12-13T15:46:46.418Z,42.65
2022-12-13T15:48:37.297Z,43.40
2022-12-13T15:50:34.615Z,36.83
2022-12-13T15:54:21.942Z,35.08
2022-12-13T15:56:59.493Z,34.22
2022-12-13T15:58:54.054Z,36.40
2022-12-13T16:00:50.152Z,36.53
2022-12-13T16:02:47.496Z,41.38
2022-12-13T16:04:35.025Z,43.10
2022-12-13T16:06:25.848Z,38.45
2022-12-13T16:08:30.667Z,33.38
2022-12-13T16:10:19.666Z,34.45
2022-12-13T16:12:07.889Z,34.10
2022-12-13T16:13:58.275Z,33.53
2022-12-13T16:15:51.917Z,40.80
2022-12-13T16:18:04.305Z,37.08
2022-12-13T16:19:55.960Z,31.55
2022-12-13T16:21:43.677Z,32.65
2022-12-13T16:23:31.031Z,41.55
2022-12-13T16:25:19.698Z,37.95
2022-12-13T16:27:09.282Z,44.47
2022-12-13T16:29:00.524Z,50.97
2022-12-13T16:31:12.664Z,49.10
2022-12-13T16:33:18.811Z,35.13
2022-12-13T16:35:08.022Z,38.40
2022-12-13T16:38:44.376Z,36.85
2022-12-13T16:40:33.188Z,43.53
2022-12-13T16:42:20.476Z,43.50
2022-12-13T16:44:10.860Z,35.28
2022-12-13T16:45:58.335Z,44.80
2022-12-13T16:47:49.742Z,55.65
2022-12-13T16:49:37.253Z,56.72
2022-12-13T16:51:26.814Z,53.92
2022-12-13T16:53:17.488Z,40.08
2022-12-13T16:55:06.359Z,33.70
2022-12-13T16:56:54.810Z,29.75
2022-12-13T16:58:49.422Z,31.20
2022-12-13T17:00:39.086Z,31.48
2022-12-13T17:02:28.691Z,30.83
2022-12-13T17:04:21.078Z,33.65
2022-12-13T17:06:14.491Z,33.45
2022-12-13T17:08:03.458Z,40.17
2022-12-13T17:09:50.730Z,43.33
2022-12-13T17:11:38.202Z,37.83
2022-12-13T17:13:26.585Z,35.10
2022-12-13T17:15:14.962Z,30.63
2022-12-13T17:17:02.609Z,28.63
2022-12-13T17:18:49.949Z,27.88
2022-12-13T17:20:37.725Z,28.35
2022-12-13T17:22:25.355Z,27.15
2022-12-13T17:24:12.798Z,26.48
2022-12-13T17:26:07.121Z,25.92
2022-12-13T17:27:54.590Z,25.77
2022-12-13T17:29:41.751Z,25.02
2022-12-13T17:31:35.292Z,26.35
2022-12-13T17:33:24.876Z,32.22
2022-12-13T17:35:17.901Z,42.45
2022-12-13T17:37:10.333Z,34.28
2022-12-13T17:38:58.700Z,29.17
2022-12-13T17:40:51.030Z,27.55
2022-12-13T17:42:42.108Z,30.63
2022-12-13T17:44:29.461Z,34.90
2022-12-13T17:46:19.609Z,36.08
2022-12-13T17:48:07.182Z,40.55
2022-12-13T17:49:55.087Z,41.70
2022-12-13T17:51:42.473Z,51.20
2022-12-13T17:53:43.218Z,50.15
2022-12-13T17:55:32.004Z,68.28
2022-12-13T17:57:19.510Z,46.25
2022-12-13T17:59:06.957Z,32.10
2022-12-13T18:00:54.823Z,44.15
2022-12-13T18:02:42.207Z,36.90
2022-12-13T18:04:44.342Z,38.05
2022-12-13T18:06:32.007Z,39.92
2022-12-13T18:08:19.418Z,48.70
2022-12-13T18:10:07.440Z,59.03
2022-12-13T18:11:55.173Z,37.58
2022-12-13T18:13:43.700Z,33.42
2022-12-13T18:15:34.108Z,42.85
2022-12-13T18:17:22.616Z,46.70
2022-12-13T18:19:15.065Z,44.03
2022-12-13T18:21:15.519Z,43.38
2022-12-13T18:23:04.457Z,35.63
2022-12-13T18:24:51.556Z,35.63
2022-12-13T18:26:38.874Z,38.88
2022-12-13T18:28:26.647Z,32.53
2022-12-13T18:30:14.439Z,36.85
2022-12-13T18:32:01.629Z,36.67
2022-12-13T18:33:50.427Z,33.35
2022-12-13T18:35:37.675Z,36.30
2022-12-13T18:37:24.888Z,36.78
2022-12-13T18:39:13.295Z,38.50
2022-12-13T18:41:10.088Z,39.45
2022-12-13T18:42:57.358Z,42.17
2022-12-13T18:44:54.118Z,42.72
2022-12-13T18:46:46.066Z,44.22
2022-12-13T18:48:34.583Z,50.00
2022-12-13T18:50:22.078Z,58.80
2022-12-13T18:52:09.380Z,57.08
2022-12-13T18:53:57.270Z,62.95
2022-12-13T18:55:47.617Z,67.72
2022-12-13T18:57:36.434Z,58.80
2022-12-13T18:59:23.916Z,47.60
2022-12-13T19:03:00.447Z,46.20
2022-12-13T19:04:55.447Z,40.22
2022-12-13T19:06:43.951Z,43.97
2022-12-13T19:08:31.682Z,46.35
2022-12-13T19:10:19.101Z,54.13
2022-12-13T19:12:07.122Z,39.40
2022-12-13T19:13:56.861Z,41.15
2022-12-13T19:15:45.508Z,44.58
2022-12-13T19:17:34.883Z,36.83
2022-12-13T19:19:23.596Z,34.33
2022-12-13T19:21:15.375Z,32.60
2022-12-13T19:23:03.474Z,27.98
2022-12-13T19:24:51.131Z,31.33
2022-12-13T19:26:38.945Z,34.38
2022-12-13T19:28:26.440Z,35.22
2022-12-13T19:30:13.763Z,41.33
2022-12-13T19:32:01.107Z,43.50
2022-12-13T19:33:49.245Z,41.97
2022-12-13T19:37:25.125Z,37.50
2022-12-13T19:39:12.978Z,33.85
2022-12-13T19:41:00.565Z,31.67
2022-12-13T19:42:47.980Z,30.83
2022-12-13T19:44:35.536Z,34.75
2022-12-13T19:46:23.056Z,35.30
2022-12-13T19:48:10.307Z,37.15
2022-12-13T19:49:57.828Z,38.95
2022-12-13T19:51:45.356Z,42.28
2022-12-13T19:53:33.322Z,36.70
2022-12-13T19:55:21.148Z,33.08
2022-12-13T19:57:08.717Z,32.83
2022-12-13T19:58:57.107Z,30.58
2022-12-13T20:00:45.092Z,32.08
2022-12-13T20:02:33.132Z,34.83
2022-12-13T20:04:21.072Z,36.53
2022-12-13T20:06:12.487Z,36.50
2022-12-13T20:08:00.177Z,37.90
2022-12-13T20:11:35.151Z,31.70
2022-12-13T20:13:22.701Z,34.88
2022-12-13T20:15:10.257Z,35.65
2022-12-13T20:16:57.413Z,34.15
2022-12-13T20:18:46.091Z,34.10
2022-12-13T20:21:02.596Z,34.58
2022-12-13T20:22:43.091Z,34.03
2022-12-13T20:24:32.933Z,38.38
2022-12-13T20:26:26.116Z,43.25
2022-12-13T20:28:16.417Z,41.55
2022-12-13T20:30:07.165Z,38.05
2022-12-13T20:31:56.300Z,35.72
2022-12-13T20:33:48.631Z,33.00
2022-12-13T20:35:45.275Z,34.38
2022-12-13T20:37:42.996Z,33.72
2022-12-13T20:39:36.830Z,35.28
2022-12-13T20:41:28.502Z,35.88
2022-12-13T20:43:16.101Z,33.00
2022-12-13T20:45:04.492Z,35.28
2022-12-13T20:46:52.292Z,35.60
2022-12-13T20:48:46.991Z,37.22
2022-12-13T20:50:35.397Z,34.08
2022-12-13T20:52:23.715Z,33.35
2022-12-13T20:54:11.744Z,31.48
2022-12-13T20:56:01.165Z,33.20
2022-12-13T20:57:49.445Z,29.73
2022-12-13T20:59:37.986Z,28.90
2022-12-13T21:01:28.725Z,27.92
2022-12-13T21:03:17.316Z,32.85
2022-12-13T21:05:04.993Z,33.33
2022-12-13T21:06:52.390Z,30.58
2022-12-13T21:08:52.227Z,32.83
2022-12-13T21:10:40.156Z,31.35
2022-12-13T21:12:27.334Z,35.03
2022-12-13T21:14:25.244Z,28.85
2022-12-13T21:16:13.126Z,27.95
2022-12-13T21:19:48.844Z,29.05
2022-12-13T21:21:38.424Z,26.25
2022-12-13T21:23:26.398Z,26.02
2022-12-13T21:25:15.121Z,29.33
2022-12-13T21:27:02.366Z,31.15
2022-12-13T21:28:58.066Z,31.05
2022-12-13T21:30:45.507Z,28.33
2022-12-13T21:32:33.120Z,28.90
2022-12-13T21:34:21.578Z,30.13
2022-12-13T21:36:14.820Z,33.22
2022-12-13T21:38:05.282Z,30.63
2022-12-13T21:39:52.695Z,32.17
2022-12-13T21:41:41.060Z,30.55
2022-12-13T21:43:37.796Z,33.60
2022-12-13T21:45:25.025Z,36.90
2022-12-13T21:47:13.419Z,33.58
2022-12-13T21:49:01.721Z,29.92
2022-12-13T21:52:38.784Z,33.13
2022-12-13T21:54:25.974Z,29.25
2022-12-13T21:56:33.905Z,23.23
2022-12-13T21:58:39.945Z,31.25
2022-12-13T22:00:27.037Z,30.95
2022-12-13T22:02:16.969Z,31.07
2022-12-13T22:04:07.054Z,30.70
2022-12-13T22:05:54.541Z,32.13
2022-12-13T22:07:41.938Z,30.47
2022-12-13T22:09:29.780Z,30.83
2022-12-13T22:11:21.417Z,30.98
2022-12-13T22:13:11.169Z,33.65
2022-12-13T22:14:59.190Z,29.50
2022-12-13T22:16:47.210Z,29.15
2022-12-13T22:18:34.957Z,29.77
2022-12-13T22:20:22.436Z,28.67
2022-12-13T22:22:09.592Z,32.40
2022-12-13T22:23:57.015Z,29.60
2022-12-13T22:25:44.493Z,33.10
2022-12-13T22:27:35.732Z,31.23
2022-12-13T22:29:22.829Z,24.48
2022-12-13T22:31:10.507Z,28.70
2022-12-13T22:32:57.629Z,28.27
2022-12-13T22:34:45.095Z,28.73
2022-12-13T22:36:32.634Z,28.70
2022-12-13T22:38:20.144Z,29.50
2022-12-13T22:40:08.452Z,27.73
2022-12-13T22:41:56.198Z,28.25
2022-12-13T22:43:43.875Z,27.48
2022-12-13T22:45:31.170Z,27.80
2022-12-13T22:47:18.880Z,27.88
2022-12-13T22:49:06.818Z,29.13
2022-12-13T22:50:53.859Z,29.40
2022-12-13T22:52:41.465Z,31.15
2022-12-13T22:54:28.754Z,34.50
2022-12-13T22:56:19.259Z,29.13
2022-12-13T22:58:06.967Z,28.38
2022-12-13T22:59:54.219Z,29.25
2022-12-13T23:01:42.445Z,22.23
2022-12-13T23:03:36.022Z,30.17
2022-12-13T23:05:22.973Z,28.17
2022-12-13T23:07:10.862Z,26.30
2022-12-13T23:09:01.013Z,28.00
2022-12-13T23:11:06.718Z,27.67
2022-12-13T23:13:02.767Z,27.33
2022-12-13T23:14:51.404Z,30.98
2022-12-13T23:16:39.441Z,31.92
2022-12-13T23:18:26.987Z,33.78
2022-12-13T23:23:48.942Z,37.03
2022-12-13T23:25:36.357Z,35.90
2022-12-13T23:27:24.304Z,35.90
2022-12-13T23:29:11.441Z,34.60
2022-12-13T23:31:01.534Z,34.42
2022-12-13T23:32:48.628Z,35.33
2022-12-13T23:34:35.609Z,31.93
2022-12-13T23:36:25.806Z,30.48
2022-12-13T23:38:13.533Z,29.60
2022-12-13T23:40:01.225Z,30.10
2022-12-13T23:41:48.491Z,20.63
2022-12-13T23:43:36.855Z,27.13
2022-12-13T23:45:24.696Z,27.48
2022-12-13T23:47:12.015Z,27.73
2022-12-13T23:49:00.379Z,30.15
2022-12-13T23:50:47.761Z,30.63
2022-12-13T23:52:35.067Z,31.48
2022-12-13T23:54:22.092Z,30.25
2022-12-13T23:56:12.080Z,32.65
2022-12-13T23:57:59.602Z,32.95
2022-12-13T23:59:46.562Z,30.40
